sensor_id;sensor_type;location;lat;lon;timestamp;temperature;humidity
23769;DHT22;12064;50.890;5.424;2023-02-15T00:06:11;22.00;63.10
23769;DHT22;12064;50.890;5.424;2023-02-15T00:15:02;22.10;63.10
23769;DHT22;12064;50.890;5.424;2023-02-15T00:23:53;22.30;62.60
23769;DHT22;12064;50.890;5.424;2023-02-15T00:32:43;22.40;62.20
23769;DHT22;12064;50.890;5.424;2023-02-15T00:41:34;22.30;62.20
23769;DHT22;12064;50.890;5.424;2023-02-15T00:50:25;22.30;62.40
23769;DHT22;12064;50.890;5.424;2023-02-15T00:59:16;22.30;62.00
23769;DHT22;12064;50.890;5.424;2023-02-15T01:08:06;22.30;61.90
23769;DHT22;12064;50.890;5.424;2023-02-15T01:16:57;22.20;61.90
23769;DHT22;12064;50.890;5.424;2023-02-15T01:35:36;22.00;62.40
23769;DHT22;12064;50.890;5.424;2023-02-15T01:53:55;21.90;62.90
23769;DHT22;12064;50.890;5.424;2023-02-15T02:02:52;21.90;62.60
23769;DHT22;12064;50.890;5.424;2023-02-15T02:11:46;22.00;62.60
23769;DHT22;12064;50.890;5.424;2023-02-15T02:21:02;22.00;62.20
23769;DHT22;12064;50.890;5.424;2023-02-15T02:48:15;22.00;61.90
23769;DHT22;12064;50.890;5.424;2023-02-15T02:57:08;21.80;62.50
23769;DHT22;12064;50.890;5.424;2023-02-15T03:06:04;21.70;63.10
23769;DHT22;12064;50.890;5.424;2023-02-15T03:25:11;21.90;62.30
23769;DHT22;12064;50.890;5.424;2023-02-15T03:34:07;22.00;62.00
23769;DHT22;12064;50.890;5.424;2023-02-15T03:43:32;22.00;62.10
23769;DHT22;12064;50.890;5.424;2023-02-15T03:52:43;21.90;62.10
23769;DHT22;12064;50.890;5.424;2023-02-15T04:01:40;21.90;62.10
23769;DHT22;12064;50.890;5.424;2023-02-15T04:10:49;21.50;63.00
23769;DHT22;12064;50.890;5.424;2023-02-15T04:19:43;21.20;64.20
23769;DHT22;12064;50.890;5.424;2023-02-15T04:28:52;21.60;63.20
23769;DHT22;12064;50.890;5.424;2023-02-15T04:37:45;21.80;62.40
23769;DHT22;12064;50.890;5.424;2023-02-15T04:47:12;21.90;61.90
23769;DHT22;12064;50.890;5.424;2023-02-15T04:56:03;21.30;63.40
23769;DHT22;12064;50.890;5.424;2023-02-15T05:04:54;20.80;65.50
23769;DHT22;12064;50.890;5.424;2023-02-15T05:13:57;21.00;65.40
23769;DHT22;12064;50.890;5.424;2023-02-15T05:22:54;21.10;65.20
23769;DHT22;12064;50.890;5.424;2023-02-15T05:31:48;21.00;65.60
23769;DHT22;12064;50.890;5.424;2023-02-15T05:40:38;21.10;65.50
23769;DHT22;12064;50.890;5.424;2023-02-15T05:49:29;20.80;66.00
23769;DHT22;12064;50.890;5.424;2023-02-15T05:58:30;20.80;65.90
23769;DHT22;12064;50.890;5.424;2023-02-15T06:07:32;21.00;65.50
23769;DHT22;12064;50.890;5.424;2023-02-15T06:16:26;22.00;64.80
23769;DHT22;12064;50.890;5.424;2023-02-15T06:25:16;22.70;62.20
23769;DHT22;12064;50.890;5.424;2023-02-15T06:34:07;22.70;61.50
23769;DHT22;12064;50.890;5.424;2023-02-15T06:42:58;22.50;61.80
23769;DHT22;12064;50.890;5.424;2023-02-15T06:51:54;21.60;64.00
23769;DHT22;12064;50.890;5.424;2023-02-15T07:00:44;20.90;65.80
23769;DHT22;12064;50.890;5.424;2023-02-15T07:09:38;20.60;66.30
23769;DHT22;12064;50.890;5.424;2023-02-15T07:18:29;20.90;65.70
23769;DHT22;12064;50.890;5.424;2023-02-15T07:27:22;21.40;64.10
23769;DHT22;12064;50.890;5.424;2023-02-15T07:36:15;20.90;65.10
23769;DHT22;12064;50.890;5.424;2023-02-15T07:45:09;20.70;65.90
23769;DHT22;12064;50.890;5.424;2023-02-15T07:53:59;20.40;66.60
23769;DHT22;12064;50.890;5.424;2023-02-15T08:02:51;20.40;66.70
23769;DHT22;12064;50.890;5.424;2023-02-15T08:12:03;20.50;66.30
23769;DHT22;12064;50.890;5.424;2023-02-15T08:20:57;20.60;66.00
23769;DHT22;12064;50.890;5.424;2023-02-15T08:29:47;20.90;64.60
23769;DHT22;12064;50.890;5.424;2023-02-15T08:38:43;20.70;65.30
23769;DHT22;12064;50.890;5.424;2023-02-15T08:47:36;20.40;66.10
23769;DHT22;12064;50.890;5.424;2023-02-15T08:56:36;20.20;66.70
23769;DHT22;12064;50.890;5.424;2023-02-15T09:05:27;20.20;66.80
23769;DHT22;12064;50.890;5.424;2023-02-15T09:14:19;20.40;66.30
23769;DHT22;12064;50.890;5.424;2023-02-15T09:23:15;21.20;64.00
23769;DHT22;12064;50.890;5.424;2023-02-15T09:32:06;21.00;64.00
23769;DHT22;12064;50.890;5.424;2023-02-15T09:59:50;20.40;66.40
23769;DHT22;12064;50.890;5.424;2023-02-15T10:09:10;20.40;66.10
23769;DHT22;12064;50.890;5.424;2023-02-15T10:27:37;21.20;64.00
23769;DHT22;12064;50.890;5.424;2023-02-15T11:13:17;20.10;67.00
23769;DHT22;12064;50.890;5.424;2023-02-15T11:22:09;20.30;66.20
23769;DHT22;12064;50.890;5.424;2023-02-15T11:31:16;20.70;65.20
23769;DHT22;12064;50.890;5.424;2023-02-15T11:40:56;21.50;62.90
23769;DHT22;12064;50.890;5.424;2023-02-15T11:49:48;21.70;62.10
23769;DHT22;12064;50.890;5.424;2023-02-15T11:58:52;21.90;61.50
23769;DHT22;12064;50.890;5.424;2023-02-15T12:07:48;21.80;61.50
23769;DHT22;12064;50.890;5.424;2023-02-15T12:16:46;21.70;61.80
23769;DHT22;12064;50.890;5.424;2023-02-15T12:25:52;20.80;64.40
23769;DHT22;12064;50.890;5.424;2023-02-15T12:34:45;20.30;65.90
23769;DHT22;12064;50.890;5.424;2023-02-15T12:43:38;20.40;66.00
23769;DHT22;12064;50.890;5.424;2023-02-15T12:52:28;20.80;64.80
23769;DHT22;12064;50.890;5.424;2023-02-15T13:01:23;21.40;63.00
23769;DHT22;12064;50.890;5.424;2023-02-15T13:10:29;21.60;62.30
23769;DHT22;12064;50.890;5.424;2023-02-15T13:19:34;21.80;61.80
23769;DHT22;12064;50.890;5.424;2023-02-15T13:28:41;21.70;61.90
23769;DHT22;12064;50.890;5.424;2023-02-15T13:46:57;21.60;62.10
23769;DHT22;12064;50.890;5.424;2023-02-15T14:14:46;21.70;61.90
23769;DHT22;12064;50.890;5.424;2023-02-15T14:23:42;21.40;62.40
23769;DHT22;12064;50.890;5.424;2023-02-15T14:32:42;21.20;63.00
23769;DHT22;12064;50.890;5.424;2023-02-15T14:41:45;20.90;64.10
23769;DHT22;12064;50.890;5.424;2023-02-15T14:50:44;21.10;63.70
23769;DHT22;12064;50.890;5.424;2023-02-15T14:59:45;21.60;62.50
23769;DHT22;12064;50.890;5.424;2023-02-15T15:08:41;21.80;61.80
23769;DHT22;12064;50.890;5.424;2023-02-15T15:36:35;21.60;62.20
23769;DHT22;12064;50.890;5.424;2023-02-15T15:54:53;21.60;62.20
23769;DHT22;12064;50.890;5.424;2023-02-15T16:03:50;21.60;62.00
23769;DHT22;12064;50.890;5.424;2023-02-15T16:12:41;21.40;62.30
23769;DHT22;12064;50.890;5.424;2023-02-15T16:21:34;21.40;62.50
23769;DHT22;12064;50.890;5.424;2023-02-15T16:30:34;21.30;62.90
23769;DHT22;12064;50.890;5.424;2023-02-15T16:39:25;21.40;62.60
23769;DHT22;12064;50.890;5.424;2023-02-15T16:48:21;21.20;63.20
23769;DHT22;12064;50.890;5.424;2023-02-15T16:57:23;20.40;65.60
23769;DHT22;12064;50.890;5.424;2023-02-15T17:24:50;20.50;66.60
23769;DHT22;12064;50.890;5.424;2023-02-15T17:33:47;20.60;66.60
23769;DHT22;12064;50.890;5.424;2023-02-15T17:42:44;20.80;66.10
23769;DHT22;12064;50.890;5.424;2023-02-15T17:51:38;20.80;66.10
23769;DHT22;12064;50.890;5.424;2023-02-15T18:00:30;20.80;66.30
23769;DHT22;12064;50.890;5.424;2023-02-15T18:09:39;20.70;66.60
23769;DHT22;12064;50.890;5.424;2023-02-15T18:18:49;20.90;66.10
23769;DHT22;12064;50.890;5.424;2023-02-15T18:27:55;21.00;66.00
23769;DHT22;12064;50.890;5.424;2023-02-15T18:36:49;20.90;67.10
23769;DHT22;12064;50.890;5.424;2023-02-15T18:46:12;20.90;66.40
23769;DHT22;12064;50.890;5.424;2023-02-15T18:55:16;21.10;65.70
23769;DHT22;12064;50.890;5.424;2023-02-15T19:04:07;21.10;66.80
23769;DHT22;12064;50.890;5.424;2023-02-15T19:12:58;20.90;66.20
23769;DHT22;12064;50.890;5.424;2023-02-15T19:21:49;21.20;66.30
23769;DHT22;12064;50.890;5.424;2023-02-15T19:30:43;21.60;66.20
23769;DHT22;12064;50.890;5.424;2023-02-15T19:39:38;22.40;64.90
23769;DHT22;12064;50.890;5.424;2023-02-15T19:57:45;23.50;62.30
23769;DHT22;12064;50.890;5.424;2023-02-15T20:06:39;23.40;63.00
23769;DHT22;12064;50.890;5.424;2023-02-15T20:16:06;23.50;62.10
23769;DHT22;12064;50.890;5.424;2023-02-15T20:34:32;22.70;64.40
23769;DHT22;12064;50.890;5.424;2023-02-15T20:43:22;23.60;63.10
23769;DHT22;12064;50.890;5.424;2023-02-15T20:52:19;23.70;62.90
23769;DHT22;12064;50.890;5.424;2023-02-15T21:10:37;23.70;61.60
23769;DHT22;12064;50.890;5.424;2023-02-15T21:19:27;23.40;62.00
23769;DHT22;12064;50.890;5.424;2023-02-15T21:28:24;23.60;62.40
23769;DHT22;12064;50.890;5.424;2023-02-15T21:37:29;23.70;60.80
23769;DHT22;12064;50.890;5.424;2023-02-15T21:46:21;23.60;60.80
23769;DHT22;12064;50.890;5.424;2023-02-15T21:55:30;23.30;61.00
23769;DHT22;12064;50.890;5.424;2023-02-15T22:04:47;23.30;61.80
23769;DHT22;12064;50.890;5.424;2023-02-15T22:13:37;23.20;61.80
23769;DHT22;12064;50.890;5.424;2023-02-15T22:22:28;23.10;61.70
23769;DHT22;12064;50.890;5.424;2023-02-15T22:31:21;22.90;62.00
23769;DHT22;12064;50.890;5.424;2023-02-15T22:40:14;22.80;62.00
23769;DHT22;12064;50.890;5.424;2023-02-15T22:49:05;22.70;62.30
23769;DHT22;12064;50.890;5.424;2023-02-15T22:57:56;22.60;62.30
23769;DHT22;12064;50.890;5.424;2023-02-15T23:06:47;22.40;62.50
23769;DHT22;12064;50.890;5.424;2023-02-15T23:15:39;22.40;62.50
23769;DHT22;12064;50.890;5.424;2023-02-15T23:24:30;22.40;62.40
23769;DHT22;12064;50.890;5.424;2023-02-15T23:33:30;22.30;62.40
23769;DHT22;12064;50.890;5.424;2023-02-15T23:42:30;22.20;62.40
23769;DHT22;12064;50.890;5.424;2023-02-15T23:51:25;22.20;62.60
